Have a Safe July 4th! 

Flight Track Log - Related Links

Times and Time Zones

All times are in EDT time to prevent confusion due to time zone crossing. See the CPZ5710 flight status page for this flight to view local times or setup timezone preferences in your user account.

Time Position Orientation Groundspeed Altitude Reporting Facility
EDT Latitude Longitude Course Direction KTS MPH feet Rate Location/Type
Sun 02:38:25 PM 40.7500 -73.8500 258° West 148 170 1,300  Level New York TRACON
Sun 02:39:25 PM 40.7500 -73.8000 90° East 222 255 2,600 1,850 Climbing New York TRACON
Sun 02:40:25 PM 40.8167 -73.7667 21° North 249 287 5,000 2,350 Climbing New York TRACON
Sun 02:41:00 PM 40.6619 -74.4311 259° West  Level FlightAware Approximate
Sun 02:41:25 PM 40.8500 -73.8333 303° West 260 299 7,300  Level New York TRACON
Sun 02:42:00 PM 40.6396 -74.5764 259° West  Level FlightAware Approximate
Sun 02:42:25 PM 40.9000 -73.9167 308° West 283 326 9,000  Level New York TRACON
Sun 02:43:00 PM 40.6058 -74.7156 258° West  Level FlightAware Approximate
Sun 02:43:25 PM 40.8667 -74.0167 246° West 274 315 10,800  Level New York TRACON
Sun 02:44:25 PM 40.8333 -74.1167 246° West 306 352 12,400 1,600 Climbing New York TRACON
Sun 02:45:25 PM 40.8000 -74.2333 249° West 354 407 14,000 1,750 Climbing New York TRACON
Sun 02:46:25 PM 40.7667 -74.3500 249° West 365 420 15,900 903 Climbing New York TRACON
Sun 02:48:51 PM 40.6728 -74.6564 248° West 384 442 17,100 816 Climbing New York Center
Sun 02:49:51 PM 40.6350 -74.7856 249° West 377 434 18,700 1,438 Climbing New York Center
Sun 02:50:52 PM 40.6000 -74.8983 248° West 371 427 20,000 1,279 Climbing New York Center
Sun 02:51:53 PM 40.5556 -75.0294 246° West 376 433 21,300 1,388 Climbing New York Center
Sun 02:52:53 PM 40.4889 -75.1453 233° Southwest 382 440 22,800 1,450 Climbing New York Center
Sun 02:53:53 PM 40.4200 -75.2556 231° Southwest 406 467 24,200 1,220 Climbing New York Center
Sun 02:54:51 PM 40.3492 -75.3681 230° Southwest 406 467 25,200 958 Climbing New York Center
Sun 02:55:52 PM 40.2736 -75.4828 229° Southwest 412 474 26,100 984 Climbing New York Center
Sun 02:56:53 PM 40.2019 -75.6083 233° Southwest 425 489 27,200 950 Climbing New York Center
Sun 02:57:52 PM 40.1361 -75.7342 236° Southwest 430 495 28,000 857 Climbing New York Center
Sun 02:58:52 PM 40.0744 -75.8653 238° Southwest 430 495 28,900 942 Climbing New York Center
Sun 02:59:53 PM 40.0083 -75.9933 236° Southwest 430 495 29,900 992 Climbing New York Center
Sun 03:00:53 PM 39.9419 -76.1239 236° Southwest 430 495 30,900 915 Climbing New York Center
Sun 03:01:51 PM 39.8586 -76.2581 231° Southwest 430 495 31,700 850 Climbing New York Center
Sun 03:02:53 PM 39.7806 -76.3681 227° Southwest 430 495 32,600 850 Climbing New York Center
Sun 03:03:51 PM 39.6981 -76.4775 226° Southwest 430 495 33,400 706 Climbing New York Center
Sun 03:04:52 PM 39.6181 -76.5817 225° Southwest 421 484 34,000 298 Climbing New York Center
Sun 03:05:52 PM 39.5375 -76.6908 226° Southwest 421 484 34,000  Level New York Center
Sun 03:07:15 PM 39.4217 -76.8408 225° Southwest 418 481 34,000  Level Washington Center
Sun 03:08:15 PM 39.3433 -76.9494 227° Southwest 423 487 34,000  Level Washington Center
Sun 03:09:14 PM 39.2608 -77.0553 225° Southwest 423 487 34,000  Level Washington Center
Sun 03:10:15 PM 39.1825 -77.1608 226° Southwest 423 487 34,000  Level Washington Center
Sun 03:11:16 PM 39.0997 -77.2686 225° Southwest 423 487 34,000  Level Washington Center
Sun 03:12:16 PM 39.0189 -77.3764 226° Southwest 423 487 34,000  Level Washington Center
Sun 03:13:15 PM 38.9383 -77.4783 225° Southwest 423 487 34,000  Level Washington Center
Sun 03:14:15 PM 38.8658 -77.5753 226° Southwest 423 487 34,000  Level Washington Center
Sun 03:15:16 PM 38.7786 -77.6794 223° Southwest 423 487 34,000  Level Washington Center
Sun 03:16:14 PM 38.7017 -77.7864 227° Southwest 423 487 34,000  Level Washington Center
Sun 03:17:15 PM 38.6267 -77.8903 227° Southwest 413 475 34,000  Level Washington Center
Sun 03:18:15 PM 38.5578 -78.0078 233° Southwest 413 475 34,000  Level Washington Center
Sun 03:19:16 PM 38.4906 -78.1250 234° Southwest 413 475 34,000  Level Washington Center
Sun 03:20:14 PM 38.4214 -78.2392 232° Southwest 418 481 34,000  Level Washington Center
Sun 03:21:14 PM 38.3542 -78.3586 234° Southwest 413 475 34,000  Level Washington Center
Sun 03:22:15 PM 38.2869 -78.4697 232° Southwest 408 470 34,000  Level Washington Center
Sun 03:23:15 PM 38.2169 -78.5939 234° Southwest 403 464 34,000  Level Washington Center
Sun 03:24:16 PM 38.1539 -78.6944 231° Southwest 403 464 34,000  Level Washington Center
Sun 03:25:16 PM 38.0886 -78.8053 233° Southwest 403 464 34,000  Level Washington Center
Sun 03:26:14 PM 38.0186 -78.9181 232° Southwest 403 464 34,000  Level Washington Center
Sun 03:27:14 PM 37.9531 -79.0286 233° Southwest 403 464 34,000  Level Washington Center
Sun 03:28:15 PM 37.8806 -79.1542 234° Southwest 403 464 34,000  Level Washington Center
Sun 03:29:15 PM 37.8206 -79.2750 238° Southwest 408 470 34,000  Level Washington Center
Sun 03:30:16 PM 37.7625 -79.3981 239° Southwest 408 470 34,000  Level Washington Center
Sun 03:31:14 PM 37.6983 -79.5156 235° Southwest 413 475 34,000  Level Washington Center
Sun 03:32:15 PM 37.6378 -79.6411 239° Southwest 413 475 34,000  Level Washington Center
Sun 03:33:16 PM 37.5753 -79.7608 237° Southwest 418 481 34,000  Level Washington Center
Sun 03:34:14 PM 37.5144 -79.8858 238° Southwest 425 489 34,000  Level Washington Center
Sun 03:35:14 PM 37.4517 -80.0078 237° Southwest 425 489 34,000  Level Washington Center
Sun 03:37:06 PM 37.3358 -80.2333 237° Southwest 431 496 34,000  Level Atlanta Center
Sun 03:38:06 PM 37.2728 -80.3511 236° Southwest 424 488 34,000  Level Atlanta Center
Sun 03:39:06 PM 37.2117 -80.4739 238° Southwest 424 488 34,000  Level Atlanta Center
Sun 03:40:06 PM 37.1544 -80.5806 236° Southwest 424 488 34,000  Level Atlanta Center
Sun 03:41:06 PM 37.0950 -80.7003 238° Southwest 418 481 34,000  Level Atlanta Center
Sun 03:42:06 PM 37.0444 -80.8300 244° Southwest 418 481 34,000  Level Atlanta Center
Sun 03:43:06 PM 36.9956 -80.9567 244° Southwest 412 474 34,000  Level Atlanta Center
Sun 03:44:06 PM 36.9278 -81.0892 237° Southwest 420 483 34,000 200 Level Atlanta Center
Sun 03:45:06 PM 36.8661 -81.2108 238° Southwest 425 489 34,400 500 Climbing Atlanta Center
Sun 03:46:06 PM 36.8042 -81.3347 238° Southwest 425 489 35,000 450 Climbing Atlanta Center
Sun 03:47:06 PM 36.7461 -81.4481 237° Southwest 413 475 35,300 500 Climbing Atlanta Center
Sun 03:48:06 PM 36.6861 -81.5692 238° Southwest 408 470 36,000 350 Climbing Atlanta Center
Sun 03:49:06 PM 36.6217 -81.6875 236° Southwest 415 478 36,000  Level Atlanta Center
Sun 03:50:06 PM 36.5572 -81.8083 236° Southwest 421 484 36,000  Level Atlanta Center
Sun 03:51:06 PM 36.4967 -81.9211 236° Southwest 416 479 36,000  Level Atlanta Center
Sun 03:52:06 PM 36.4342 -82.0389 237° Southwest 416 479 36,000  Level Atlanta Center
Sun 03:53:06 PM 36.3714 -82.1564 236° Southwest 416 479 36,000  Level Atlanta Center
Sun 03:54:06 PM 36.3083 -82.2764 237° Southwest 421 484 36,000  Level Atlanta Center
Sun 03:55:06 PM 36.2494 -82.3833 236° Southwest 421 484 36,000  Level Atlanta Center
Sun 03:56:06 PM 36.1883 -82.4978 237° Southwest 413 475 36,000  Level Atlanta Center
Sun 03:57:06 PM 36.1250 -82.6147 236° Southwest 413 475 36,000  Level Atlanta Center
Sun 03:58:06 PM 36.0617 -82.7314 236° Southwest 413 475 36,000  Level Atlanta Center
Sun 03:59:06 PM 35.9983 -82.8478 236° Southwest 418 481 36,000  Level Atlanta Center
Sun 04:00:06 PM 35.9347 -82.9667 237° Southwest 418 481 36,000  Level Atlanta Center
Sun 04:01:06 PM 35.8731 -83.0803 236° Southwest 411 473 36,000  Level Atlanta Center
Sun 04:02:06 PM 35.8092 -83.1989 236° Southwest 421 484 36,000  Level Atlanta Center
Sun 04:03:06 PM 35.7411 -83.3250 236° Southwest 421 484 36,000  Level Atlanta Center
Sun 04:04:06 PM 35.6750 -83.4456 236° Southwest 421 484 36,000  Level Atlanta Center
Sun 04:05:06 PM 35.6108 -83.5611 236° Southwest 421 484 36,000  Level Atlanta Center
Sun 04:06:06 PM 35.5486 -83.6764 236° Southwest 421 484 36,000  Level Atlanta Center
Sun 04:07:06 PM 35.4803 -83.7889 233° Southwest 421 484 36,000  Level Atlanta Center
Sun 04:08:06 PM 35.3947 -83.8911 224° Southwest 421 484 36,000  Level Atlanta Center
Sun 04:09:06 PM 35.3136 -83.9903 225° Southwest 421 484 36,000  Level Atlanta Center
Sun 04:10:06 PM 35.2406 -84.1022 231° Southwest 421 484 36,000  Level Atlanta Center
Sun 04:11:06 PM 35.1778 -84.2242 238° Southwest 427 491 36,000  Level Atlanta Center
Sun 04:12:06 PM 35.1128 -84.3408 236° Southwest 427 491 36,000  Level Atlanta Center
Sun 04:13:06 PM 35.0478 -84.4575 236° Southwest 422 486 36,000  Level Atlanta Center
Sun 04:14:06 PM 34.9847 -84.5761 237° Southwest 422 486 36,000  Level Atlanta Center
Sun 04:15:06 PM 34.9194 -84.6947 236° Southwest 422 486 36,000  Level Atlanta Center
Sun 04:16:06 PM 34.8606 -84.8008 236° Southwest 422 486 36,000  Level Atlanta Center
Sun 04:17:06 PM 34.7950 -84.9217 237° Southwest 422 486 36,000  Level Atlanta Center
Sun 04:18:06 PM 34.7294 -85.0397 236° Southwest 422 486 36,000  Level Atlanta Center
Sun 04:19:06 PM 34.6617 -85.1600 236° Southwest 427 491 36,000  Level Atlanta Center
Sun 04:20:06 PM 34.5958 -85.2778 236° Southwest 427 491 36,000  Level Atlanta Center
Sun 04:21:06 PM 34.5278 -85.3978 235° Southwest 432 497 36,000  Level Atlanta Center
Sun 04:22:06 PM 34.4594 -85.5203 236° Southwest 432 497 36,000  Level Atlanta Center
Sun 04:23:06 PM 34.3933 -85.6397 236° Southwest 437 503 36,000  Level Atlanta Center
Sun 04:24:06 PM 34.3228 -85.7717 237° Southwest 432 497 36,000  Level Atlanta Center
Sun 04:25:06 PM 34.2522 -85.8858 233° Southwest 432 497 36,000  Level Atlanta Center
Sun 04:26:06 PM 34.1856 -86.0050 236° Southwest 432 497 36,000  Level Atlanta Center
Sun 04:27:06 PM 34.1167 -86.1264 236° Southwest 432 497 36,000  Level Atlanta Center
Sun 04:28:06 PM 34.0458 -86.2475 235° Southwest 437 503 36,000  Level Atlanta Center
Sun 04:29:06 PM 33.9769 -86.3658 235° Southwest 437 503 36,000  Level Atlanta Center
Sun 04:30:06 PM 33.9078 -86.4867 235° Southwest 437 503 36,000  Level Atlanta Center
Sun 04:31:06 PM 33.8386 -86.6047 235° Southwest 437 503 36,000  Level Atlanta Center
Sun 04:32:06 PM 33.7692 -86.7278 236° Southwest 437 503 36,000  Level Atlanta Center
Sun 04:33:06 PM 33.6997 -86.8453 235° Southwest 437 503 36,000  Level Atlanta Center
Sun 04:34:06 PM 33.6425 -86.9733 242° Southwest 442 509 36,000  Level Atlanta Center
Sun 04:35:06 PM 33.5975 -87.1064 248° West 435 501 36,000  Level Atlanta Center
Sun 04:36:06 PM 33.5522 -87.2419 248° West 435 501 36,000  Level Atlanta Center
Sun 04:39:19 PM 33.3986 -87.6797 247° West 458 527 36,000  Level Memphis Center
Sun 04:40:19 PM 33.3536 -87.8156 248° West 463 533 36,000  Level Memphis Center
Sun 04:41:19 PM 33.3081 -87.9486 248° West 457 526 36,000  Level Memphis Center
Sun 04:42:19 PM 33.2606 -88.0817 247° West 445 512 36,000  Level Memphis Center
Sun 04:43:19 PM 33.2172 -88.2192 249° West 440 506 36,000  Level Memphis Center
Sun 04:44:19 PM 33.1692 -88.3519 247° West 440 506 36,000  Level Memphis Center
Sun 04:45:19 PM 33.1233 -88.4844 248° West 440 506 36,000  Level Memphis Center
Sun 04:46:19 PM 33.0750 -88.6169 247° West 440 506 36,000  Level Memphis Center
Sun 04:47:19 PM 33.0267 -88.7467 246° West 440 506 36,000  Level Memphis Center
Sun 04:48:19 PM 32.9825 -88.8786 248° West 435 501 36,000  Level Memphis Center
Sun 04:49:19 PM 32.9339 -89.0083 246° West 435 501 36,000  Level Memphis Center
Sun 04:50:19 PM 32.8872 -89.1400 247° West 435 501 36,000  Level Memphis Center
Sun 04:51:19 PM 32.8383 -89.2694 246° West 440 506 36,000  Level Memphis Center
Sun 04:52:19 PM 32.7914 -89.4008 247° West 440 506 36,000  Level Memphis Center
Sun 04:53:19 PM 32.7422 -89.5325 246° West 440 506 36,000  Level Memphis Center
Sun 04:54:19 PM 32.6928 -89.6586 245° Southwest 440 506 36,000  Level Memphis Center
Sun 04:55:19 PM 32.6456 -89.7897 247° West 440 506 36,000  Level Memphis Center
Sun 04:56:19 PM 32.6003 -89.9183 247° West 435 501 36,000  Level Memphis Center
Sun 04:57:19 PM 32.5525 -90.0492 247° West 435 501 36,000  Level Memphis Center
Sun 04:58:19 PM 32.5006 -90.1775 244° Southwest 435 501 36,000  Level Memphis Center
Sun 04:59:19 PM 32.4381 -90.3006 239° Southwest 435 501 36,000  Level Memphis Center
Sun 05:00:19 PM 32.3756 -90.4214 239° Southwest 440 506 36,000  Level Memphis Center
Sun 05:02:38 PM 32.2392 -90.6792 238° Southwest 429 494 36,000  Level Houston Center
Sun 05:03:40 PM 32.1692 -90.8144 239° Southwest 428 493 36,000  Level Houston Center
Sun 05:04:42 PM 32.1064 -90.9336 238° Southwest 428 493 36,000  Level Houston Center
Sun 05:05:44 PM 32.0436 -91.0525 238° Southwest 428 493 36,000  Level Houston Center
Sun 05:06:46 PM 31.9789 -91.1697 237° Southwest 427 491 36,000  Level Houston Center
Sun 05:07:48 PM 31.9161 -91.2883 238° Southwest 425 489 36,000  Level Houston Center
Sun 05:08:50 PM 31.8408 -91.4300 238° Southwest 426 490 36,000 -192 Level Houston Center
Sun 05:09:53 PM 31.7781 -91.5472 238° Southwest 425 489 35,600 -480 Descending Houston Center
Sun 05:10:55 PM 31.7144 -91.6628 237° Southwest 422 486 35,000 -290 Descending Houston Center
Sun 05:11:57 PM 31.6500 -91.7819 238° Southwest 430 495 35,000  Level Houston Center
Sun 05:12:59 PM 31.5856 -91.9011 238° Southwest 433 498 35,000  Level Houston Center
Sun 05:14:00 PM 31.5245 -92.0108 237° Southwest  Level FlightAware Approximate
Sun 05:14:01 PM 31.5128 -92.0339 237° Southwest 432 497 35,000  Level Houston Center
Sun 05:15:03 PM 31.4489 -92.1500 237° Southwest 428 493 35,000  Level Houston Center
Sun 05:16:05 PM 31.3847 -92.2672 237° Southwest 431 496 35,000  Level Houston Center
Sun 05:17:07 PM 31.3203 -92.3844 237° Southwest 433 498 35,000  Level Houston Center
Sun 05:18:09 PM 31.2406 -92.5242 236° Southwest 434 499 35,000  Level Houston Center
Sun 05:19:11 PM 31.1772 -92.6422 238° Southwest 431 496 35,000  Level Houston Center
Sun 05:20:13 PM 31.1128 -92.7578 237° Southwest 427 491 35,000 -194 Level Houston Center
Sun 05:21:15 PM 31.0475 -92.8733 237° Southwest 428 493 34,600 -677 Descending Houston Center
Sun 05:22:17 PM 30.9833 -92.9883 237° Southwest 426 490 33,600 -919 Descending Houston Center
Sun 05:23:19 PM 30.9181 -93.1044 237° Southwest 429 494 32,700 -1,008 Descending Houston Center
Sun 05:24:22 PM 30.8400 -93.2428 237° Southwest 430 495 31,500 -1,056 Descending Houston Center
Sun 05:25:24 PM 30.7747 -93.3592 237° Southwest 431 496 30,500 -968 Descending Houston Center
Sun 05:26:26 PM 30.7089 -93.4764 237° Southwest 434 499 29,500 -968 Descending Houston Center
Sun 05:27:28 PM 30.6406 -93.5956 236° Southwest 443 510 28,500 -1,113 Descending Houston Center
Sun 05:28:30 PM 30.5594 -93.7375 236° Southwest 448 516 27,200 -1,984 Descending Houston Center
Sun 05:29:32 PM 30.4933 -93.8525 236° Southwest 437 503 24,400 -2,710 Descending Houston Center
Sun 05:30:34 PM 30.4500 -93.9742 248° West 417 480 21,600 -2,661 Descending Houston Center
Sun 05:31:36 PM 30.4344 -94.1011 262° West 398 458 18,900 -2,514 Descending Houston Center
Sun 05:32:19 PM 30.4428 -94.2014 276° West 369 425 17,200 -2,423 Descending Houston Center
Sun 05:33:20 PM 30.3828 -94.2967 234° Southwest 351 404 14,700 -2,390 Descending Houston Center
Sun 05:34:22 PM 30.3089 -94.3767 223° Southwest 351 404 12,300 -1,902 Descending Houston Center
Sun 05:35:23 PM 30.2425 -94.4506 224° Southwest 322 371 10,800 -1,436 Descending Houston Center
Sun 05:36:19 PM 30.1875 -94.5111 224° Southwest 294 338 9,500 -1,548 Descending Houston Center
Sun 05:37:27 PM 30.1572 -94.6092 250° West 290 334 7,600 -1,628 Descending Houston Center
Sun 05:38:28 PM 30.1406 -94.6983 258° West 283 326 6,000 -780 Descending Houston Center
Sun 05:39:30 PM 30.1258 -94.7850 259° West 277 319 6,000  Level Houston Center
Sun 05:40:31 PM 30.1094 -94.8789 259° West 278 320 6,000  Level Houston Center
Sun 05:41:32 PM 30.1053 -94.9686 267° West 278 320 6,000  Level Houston Center
Sun 05:42:28 PM 30.1047 -95.0508 270° West 280 322 6,000 69 Level Houston Center
Sun 05:42:59 PM 30.1058 -95.0806 272° West 280 322 6,100  Climbing Houston Center
Sun 05:43:29 PM 30.1047 -95.1403 269° West 280 322 6,000  Descending Houston Center
Sun 05:44:01 PM 30.1064 -95.1844 273° West 276 318 6,100  Climbing Houston Center
Sun 05:44:31 PM 30.1058 -95.2222 269° West 230 265 6,000  Descending Houston Center
Sun 05:45:03 PM 30.1067 -95.2583 272° West 247 284 6,100 64 Climbing Houston Center
Sun 05:46:05 PM 30.1064 -95.3311 270° West 232 267 6,100 -500 Level Houston Center
Sun 05:46:39 PM 30.1061 -95.3842 270° West 231 266 5,300 -1,326 Descending Houston Center
Sun 05:47:40 PM 30.1067 -95.4589 271° West 235 270 4,000 -1,122 Descending Houston Center
Sun 05:48:42 PM 30.1047 -95.5314 268° West 231 266 3,000 -488 Descending Houston Center
Sun 05:49:43 PM 30.0636 -95.5653 216° Southwest 213 245 3,000  Level Houston Center
Sun 05:50:13 PM 30.0414 -95.5628 174° South 216 249 3,000 -198 Level Houston Center
Sun 05:51:14 PM 30.0067 -95.5133 129° Southeast 215 247 2,700 -295 Descending Houston Center

Login

Don't have an account? Register now (free) for customized features, flight alerts, and more!